createdAt,value
2023-03-11T00:00:53.902Z,1.40
2023-03-11T00:03:11.190Z,1.48
2023-03-11T00:05:29.206Z,1.33
2023-03-11T00:07:46.241Z,1.33
2023-03-11T00:10:03.567Z,1.23
2023-03-11T00:12:20.564Z,1.20
2023-03-11T00:14:37.442Z,1.40
2023-03-11T00:16:54.774Z,1.27
2023-03-11T00:19:13.091Z,1.55
2023-03-11T00:21:30.194Z,1.10
2023-03-11T00:23:47.546Z,1.27
2023-03-11T00:26:04.791Z,1.42
2023-03-11T00:28:21.746Z,1.33
2023-03-11T00:30:38.748Z,1.42
2023-03-11T00:32:55.786Z,1.15
2023-03-11T00:35:13.005Z,1.38
2023-03-11T00:37:30.328Z,1.45
2023-03-11T00:39:47.502Z,1.27
2023-03-11T00:42:04.431Z,1.20
2023-03-11T00:44:21.444Z,1.45
2023-03-11T00:46:38.655Z,1.25
2023-03-11T00:48:56.067Z,1.42
2023-03-11T00:51:13.160Z,1.10
2023-03-11T00:53:30.189Z,1.52
2023-03-11T00:55:47.125Z,1.38
2023-03-11T00:58:04.052Z,1.30
2023-03-11T01:00:21.286Z,1.27
2023-03-11T01:02:38.326Z,2.08
2023-03-11T01:04:55.425Z,1.98
2023-03-11T01:07:12.358Z,1.60
2023-03-11T01:09:29.497Z,1.40
2023-03-11T01:11:46.494Z,1.70
2023-03-11T01:14:03.760Z,1.40
2023-03-11T01:16:21.667Z,1.55
2023-03-11T01:18:38.608Z,1.17
2023-03-11T01:20:55.611Z,1.40
2023-03-11T01:23:12.545Z,1.25
2023-03-11T01:25:29.575Z,1.30
2023-03-11T01:27:46.818Z,1.55
2023-03-11T01:30:03.751Z,1.50
2023-03-11T01:32:20.841Z,1.52
2023-03-11T01:34:39.122Z,1.38
2023-03-11T01:36:56.058Z,1.40
2023-03-11T01:39:13.038Z,1.55
2023-03-11T01:41:30.337Z,1.42
2023-03-11T01:43:47.169Z,1.70
2023-03-11T01:46:04.135Z,1.30
2023-03-11T01:48:21.085Z,1.48
2023-03-11T01:50:37.981Z,1.40
2023-03-11T01:52:54.952Z,1.55
2023-03-11T01:55:11.825Z,1.33
2023-03-11T01:57:28.717Z,1.85
2023-03-11T01:59:45.990Z,1.58
2023-03-11T02:02:02.888Z,1.80
2023-03-11T02:04:19.920Z,1.70
2023-03-11T02:06:37.926Z,1.58
2023-03-11T02:08:55.243Z,1.55
2023-03-11T02:11:12.307Z,1.30
2023-03-11T02:13:29.341Z,1.85
2023-03-11T02:15:46.284Z,1.60
2023-03-11T02:18:03.327Z,1.63
2023-03-11T02:20:20.211Z,2.13
2023-03-11T02:22:37.102Z,1.48
2023-03-11T02:24:55.109Z,1.50
2023-03-11T02:27:12.442Z,1.80
2023-03-11T02:29:29.499Z,2.20
2023-03-11T02:31:46.480Z,2.08
2023-03-11T02:34:03.540Z,2.22
2023-03-11T02:36:20.445Z,1.27
2023-03-11T02:38:37.679Z,1.50
2023-03-11T02:40:54.540Z,1.30
2023-03-11T02:43:11.584Z,1.80
2023-03-11T02:45:28.527Z,1.50
2023-03-11T02:47:45.541Z,1.73
2023-03-11T02:50:02.561Z,2.00
2023-03-11T02:52:19.479Z,1.70
2023-03-11T02:54:36.811Z,1.40
2023-03-11T02:56:53.874Z,1.63
2023-03-11T02:59:10.779Z,1.73
2023-03-11T03:01:28.025Z,1.75
2023-03-11T03:03:46.106Z,1.75
2023-03-11T03:06:03.208Z,1.50
2023-03-11T03:08:20.479Z,1.40
2023-03-11T03:10:37.468Z,1.60
2023-03-11T03:12:55.505Z,1.45
2023-03-11T03:15:13.812Z,1.55
2023-03-11T03:17:30.718Z,2.05
2023-03-11T03:19:47.668Z,1.80
2023-03-11T03:22:04.987Z,1.63
2023-03-11T03:24:22.249Z,2.00
2023-03-11T03:26:39.197Z,2.22
2023-03-11T03:28:56.235Z,1.52
2023-03-11T03:31:14.164Z,1.75
2023-03-11T03:33:31.054Z,1.50
2023-03-11T03:35:48.356Z,1.55
2023-03-11T03:38:05.366Z,1.70
2023-03-11T03:40:22.436Z,1.58
2023-03-11T03:42:39.460Z,1.60
2023-03-11T03:44:56.661Z,1.67
2023-03-11T03:47:13.532Z,1.80
2023-03-11T03:49:30.485Z,1.40
2023-03-11T03:51:47.330Z,1.83
2023-03-11T03:54:04.166Z,1.77
2023-03-11T03:56:22.182Z,1.77
2023-03-11T03:58:39.100Z,1.95
2023-03-11T04:00:56.355Z,1.58
2023-03-11T04:03:14.256Z,1.45
2023-03-11T04:05:31.311Z,2.15
2023-03-11T04:07:48.221Z,1.60
2023-03-11T04:10:05.350Z,2.85
2023-03-11T04:12:22.404Z,2.55
2023-03-11T04:14:39.724Z,4.18
2023-03-11T04:16:57.075Z,4.50
2023-03-11T04:19:14.348Z,3.45
2023-03-11T04:21:31.375Z,1.85
2023-03-11T04:23:48.675Z,2.05
2023-03-11T04:26:05.979Z,1.98
2023-03-11T04:28:23.230Z,2.33
2023-03-11T04:30:40.286Z,2.28
2023-03-11T04:32:57.292Z,2.17
2023-03-11T04:35:14.669Z,1.83
2023-03-11T04:37:31.575Z,2.05
2023-03-11T04:39:48.465Z,2.25
2023-03-11T04:42:05.751Z,1.63
2023-03-11T04:44:23.099Z,2.10
2023-03-11T04:46:40.111Z,2.05
2023-03-11T04:48:57.148Z,1.80
2023-03-11T04:51:14.375Z,1.73
2023-03-11T04:53:31.363Z,2.08
2023-03-11T04:55:48.256Z,1.90
2023-03-11T04:58:05.505Z,1.98
2023-03-11T05:00:22.557Z,2.40
2023-03-11T05:02:39.593Z,2.15
2023-03-11T05:04:56.630Z,2.60
2023-03-11T05:07:13.573Z,1.95
2023-03-11T05:09:30.474Z,2.40
2023-03-11T05:11:47.714Z,2.30
2023-03-11T05:14:04.755Z,2.10
2023-03-11T05:16:21.792Z,2.35
2023-03-11T05:18:38.724Z,1.98
2023-03-11T05:20:55.812Z,2.67
2023-03-11T05:23:12.787Z,1.92
2023-03-11T05:25:29.674Z,2.55
2023-03-11T05:27:46.550Z,2.00
2023-03-11T05:30:03.882Z,2.40
2023-03-11T05:32:20.936Z,2.20
2023-03-11T05:34:38.010Z,2.10
2023-03-11T05:36:55.050Z,2.00
2023-03-11T05:39:12.331Z,1.70
2023-03-11T05:41:29.222Z,2.13
2023-03-11T05:43:46.148Z,2.00
2023-03-11T05:46:03.132Z,2.08
2023-03-11T05:48:20.381Z,1.80
2023-03-11T05:50:37.453Z,2.22
2023-03-11T05:52:54.370Z,2.15
2023-03-11T05:55:11.317Z,2.00
2023-03-11T05:57:28.261Z,2.50
2023-03-11T05:59:45.317Z,2.05
2023-03-11T06:02:02.220Z,2.25
2023-03-11T06:04:20.327Z,1.73
2023-03-11T06:06:37.352Z,2.30
2023-03-11T06:08:54.280Z,2.35
2023-03-11T06:11:12.276Z,2.70
2023-03-11T06:13:29.140Z,2.08
2023-03-11T06:15:46.363Z,2.15
2023-03-11T06:18:03.390Z,2.17
2023-03-11T06:20:20.329Z,2.97
2023-03-11T06:22:40.205Z,3.55
2023-03-11T06:24:57.734Z,2.28
2023-03-11T06:27:14.923Z,2.33
2023-03-11T06:29:32.801Z,2.75
2023-03-11T06:31:49.861Z,2.22
2023-03-11T06:34:06.917Z,2.45
2023-03-11T06:36:23.883Z,2.70
2023-03-11T06:38:40.901Z,2.03
2023-03-11T06:40:57.784Z,2.38
2023-03-11T06:43:14.743Z,2.10
2023-03-11T06:45:31.721Z,2.35
2023-03-11T06:47:49.044Z,3.00
2023-03-11T06:50:05.936Z,3.92
2023-03-11T06:52:22.873Z,3.53
2023-03-11T06:54:40.130Z,4.10
2023-03-11T06:56:57.043Z,8.88
2023-03-11T06:59:13.934Z,9.68
2023-03-11T07:01:31.893Z,9.55
2023-03-11T07:03:48.878Z,10.38
2023-03-11T07:06:06.770Z,10.00
2023-03-11T07:08:24.166Z,9.95
2023-03-11T07:10:41.055Z,7.60
2023-03-11T07:12:58.112Z,8.05
2023-03-11T07:15:15.517Z,6.38
2023-03-11T07:17:32.465Z,4.38
2023-03-11T07:19:50.538Z,4.05
2023-03-11T07:22:07.571Z,2.42
2023-03-11T07:24:24.639Z,2.40
2023-03-11T07:26:43.798Z,2.70
2023-03-11T07:29:01.172Z,3.20
2023-03-11T07:31:19.894Z,3.97
2023-03-11T07:33:36.910Z,3.75
2023-03-11T07:35:54.061Z,3.17
2023-03-11T07:38:11.183Z,2.25
2023-03-11T07:40:28.106Z,2.47
2023-03-11T07:42:44.994Z,2.20
2023-03-11T07:45:01.972Z,2.35
2023-03-11T07:47:19.652Z,2.13
2023-03-11T07:49:36.671Z,4.75
2023-03-11T07:51:53.710Z,4.88
2023-03-11T07:54:10.746Z,5.15
2023-03-11T07:56:27.759Z,8.32
2023-03-11T07:58:45.891Z,3.08
2023-03-11T08:01:03.039Z,3.53
2023-03-11T08:03:20.051Z,6.85
2023-03-11T08:05:37.089Z,4.68
2023-03-11T08:07:54.694Z,4.68
2023-03-11T08:10:12.671Z,2.70
2023-03-11T08:12:29.719Z,5.05
2023-03-11T08:14:46.991Z,3.05
2023-03-11T08:17:04.338Z,2.47
2023-03-11T08:19:21.392Z,4.70
2023-03-11T08:21:38.479Z,4.28
2023-03-11T08:23:55.526Z,2.63
2023-03-11T08:26:12.467Z,3.30
2023-03-11T08:28:29.393Z,4.90
2023-03-11T08:30:46.766Z,3.65
2023-03-11T08:33:05.120Z,5.60
2023-03-11T08:35:22.145Z,3.50
2023-03-11T08:37:39.396Z,4.18
2023-03-11T08:39:56.309Z,3.92
2023-03-11T08:42:13.340Z,3.10
2023-03-11T08:44:30.211Z,2.83
2023-03-11T08:46:47.281Z,3.17
2023-03-11T08:49:04.341Z,2.22
2023-03-11T08:51:21.408Z,2.58
2023-03-11T08:53:38.628Z,1.85
2023-03-11T08:55:55.455Z,2.10
2023-03-11T08:58:12.627Z,1.83
2023-03-11T09:00:29.851Z,1.77
2023-03-11T09:02:46.902Z,1.65
2023-03-11T09:05:04.112Z,1.90
2023-03-11T09:07:21.023Z,2.50
2023-03-11T09:09:38.086Z,2.42
2023-03-11T09:11:55.112Z,2.00
2023-03-11T09:14:12.024Z,2.60
2023-03-11T09:16:29.159Z,2.40
2023-03-11T09:18:46.233Z,1.98
2023-03-11T09:21:03.217Z,1.55
2023-03-11T09:23:20.236Z,1.85
2023-03-11T09:25:37.225Z,1.45
2023-03-11T09:27:55.534Z,1.80
2023-03-11T09:30:12.581Z,1.65
2023-03-11T09:32:29.881Z,3.03
2023-03-11T09:34:47.801Z,1.70
2023-03-11T09:37:04.763Z,1.67
2023-03-11T09:39:21.745Z,1.92
2023-03-11T09:41:55.335Z,1.85
2023-03-11T09:44:15.010Z,1.90
2023-03-11T09:46:32.278Z,1.42
2023-03-11T09:48:49.529Z,3.22
2023-03-11T09:51:06.515Z,2.63
2023-03-11T09:53:23.457Z,4.00
2023-03-11T09:55:40.694Z,4.10
2023-03-11T09:57:57.733Z,2.30
2023-03-11T10:00:15.004Z,5.88
2023-03-11T10:02:32.229Z,9.35
2023-03-11T10:04:50.297Z,11.48
2023-03-11T10:07:07.377Z,4.53
2023-03-11T10:09:24.633Z,6.45
2023-03-11T10:11:41.942Z,12.50
2023-03-11T10:13:59.939Z,5.45
2023-03-11T10:16:16.974Z,1.70
2023-03-11T10:18:34.003Z,2.70
2023-03-11T10:20:51.082Z,2.17
2023-03-11T10:23:08.113Z,2.20
2023-03-11T10:25:25.334Z,2.53
2023-03-11T10:27:42.249Z,3.95
2023-03-11T10:29:59.081Z,11.98
2023-03-11T10:32:16.386Z,8.25
2023-03-11T10:34:33.378Z,7.65
2023-03-11T10:36:50.574Z,3.65
2023-03-11T10:39:07.809Z,8.00
2023-03-11T10:41:25.110Z,6.07
2023-03-11T10:43:42.014Z,4.45
2023-03-11T10:45:59.025Z,1.40
2023-03-11T10:48:15.952Z,1.20
2023-03-11T10:50:34.721Z,1.00
2023-03-11T10:52:53.020Z,1.50
2023-03-11T10:55:11.097Z,2.08
2023-03-11T10:57:28.431Z,2.50
2023-03-11T10:59:45.328Z,1.60
2023-03-11T11:02:02.379Z,2.72
2023-03-11T11:04:19.428Z,1.50
2023-03-11T11:06:36.731Z,2.58
2023-03-11T11:08:53.878Z,3.20
2023-03-11T11:11:10.891Z,4.20
2023-03-11T11:13:27.935Z,4.43
2023-03-11T11:15:44.862Z,4.00
2023-03-11T11:18:02.107Z,3.10
2023-03-11T11:20:19.522Z,6.00
2023-03-11T11:22:36.493Z,4.75
2023-03-11T11:24:53.821Z,2.80
2023-03-11T11:27:10.862Z,2.00
2023-03-11T11:29:27.946Z,1.75
2023-03-11T11:31:44.884Z,2.00
2023-03-11T11:34:01.812Z,4.40
2023-03-11T11:36:19.101Z,6.82
2023-03-11T11:38:36.135Z,3.13
2023-03-11T11:40:53.237Z,7.97
2023-03-11T11:43:11.082Z,12.10
2023-03-11T11:45:28.108Z,16.63
2023-03-11T11:47:45.132Z,7.25
2023-03-11T11:50:02.001Z,2.70
2023-03-11T11:52:19.015Z,3.10
2023-03-11T11:54:35.949Z,2.45
2023-03-11T11:56:53.037Z,4.22
2023-03-11T11:59:10.906Z,2.47
2023-03-11T12:01:28.012Z,3.30
2023-03-11T12:03:45.256Z,3.80
2023-03-11T12:06:02.588Z,5.10
2023-03-11T12:08:19.717Z,2.55
2023-03-11T12:10:36.646Z,1.27
2023-03-11T12:12:53.687Z,1.98
2023-03-11T12:15:11.114Z,1.48
2023-03-11T12:17:28.430Z,1.30
2023-03-11T12:19:45.679Z,1.20
2023-03-11T12:22:02.802Z,1.00
2023-03-11T12:24:20.026Z,1.40
2023-03-11T12:26:37.069Z,1.17
2023-03-11T12:28:55.323Z,1.00
2023-03-11T12:31:12.632Z,2.40
2023-03-11T12:33:29.889Z,11.15
2023-03-11T12:35:47.144Z,21.52
2023-03-11T12:38:04.254Z,7.53
2023-03-11T12:40:21.191Z,2.92
2023-03-11T12:42:38.517Z,2.58
2023-03-11T12:44:55.615Z,1.90
2023-03-11T12:47:12.691Z,2.42
2023-03-11T12:49:29.659Z,1.48
2023-03-11T12:51:46.689Z,1.42
2023-03-11T12:54:03.911Z,1.30
2023-03-11T12:56:20.906Z,1.50
2023-03-11T12:58:37.937Z,1.52
2023-03-11T13:00:54.799Z,1.08
2023-03-11T13:03:11.899Z,1.42
2023-03-11T13:05:29.287Z,1.02
2023-03-11T13:07:46.680Z,1.20
2023-03-11T13:10:03.629Z,1.25
2023-03-11T13:12:20.638Z,1.20
2023-03-11T13:14:37.843Z,1.73
2023-03-11T13:16:55.123Z,1.48
2023-03-11T13:19:12.404Z,1.45
2023-03-11T13:21:29.430Z,1.20
2023-03-11T13:23:46.674Z,1.25
2023-03-11T13:26:03.747Z,1.17
2023-03-11T13:28:20.777Z,1.40
2023-03-11T13:30:37.814Z,1.15
2023-03-11T13:32:54.894Z,1.27
2023-03-11T13:35:11.906Z,1.23
2023-03-11T13:37:29.179Z,1.40
2023-03-11T13:39:46.258Z,1.20
2023-03-11T13:42:03.189Z,1.20
2023-03-11T13:44:20.106Z,1.20
2023-03-11T13:46:37.311Z,0.98
2023-03-11T13:48:54.550Z,1.20
2023-03-11T13:51:11.672Z,1.55
2023-03-11T13:53:28.980Z,1.30
2023-03-11T13:55:45.919Z,1.50
2023-03-11T13:58:03.145Z,1.20
2023-03-11T14:00:20.383Z,1.20
2023-03-11T14:02:37.532Z,1.02
2023-03-11T14:04:54.748Z,1.30
2023-03-11T14:07:11.944Z,1.80
2023-03-11T14:09:29.241Z,1.70
2023-03-11T14:11:46.227Z,2.50
2023-03-11T14:14:03.451Z,1.70
2023-03-11T14:16:20.707Z,1.92
2023-03-11T14:18:37.777Z,1.75
2023-03-11T14:20:55.203Z,1.45
2023-03-11T14:23:12.533Z,1.70
2023-03-11T14:25:29.790Z,1.23
2023-03-11T14:27:46.907Z,1.65
2023-03-11T14:30:04.256Z,1.45
2023-03-11T14:32:23.185Z,2.33
2023-03-11T14:34:43.023Z,2.20
2023-03-11T14:37:00.084Z,1.50
2023-03-11T14:39:17.374Z,2.28
2023-03-11T14:41:34.368Z,1.90
2023-03-11T14:43:51.268Z,2.30
2023-03-11T14:46:08.499Z,1.40
2023-03-11T14:48:25.432Z,2.30
2023-03-11T14:50:42.472Z,2.00
2023-03-11T14:53:01.915Z,1.50
2023-03-11T14:55:20.042Z,4.50
2023-03-11T14:57:37.090Z,1.95
2023-03-11T14:59:54.941Z,1.90
2023-03-11T15:02:12.181Z,2.03
2023-03-11T15:04:29.113Z,2.30
2023-03-11T15:06:46.385Z,3.03
2023-03-11T15:09:04.326Z,2.38
2023-03-11T15:11:21.232Z,1.50
2023-03-11T15:13:38.530Z,1.75
2023-03-11T15:15:56.765Z,1.50
2023-03-11T15:18:13.674Z,1.15
2023-03-11T15:20:31.568Z,1.05
2023-03-11T15:22:49.543Z,1.30
2023-03-11T15:25:06.628Z,1.10
2023-03-11T15:27:23.509Z,1.00
2023-03-11T15:29:40.540Z,1.38
2023-03-11T15:31:57.800Z,1.17
2023-03-11T15:34:14.710Z,1.35
2023-03-11T15:36:31.814Z,1.35
2023-03-11T15:38:49.190Z,1.30
2023-03-11T15:41:06.453Z,1.33
2023-03-11T15:43:23.402Z,1.30
2023-03-11T15:45:40.421Z,1.30
2023-03-11T15:47:57.326Z,1.60
2023-03-11T15:50:23.480Z,1.30
2023-03-11T15:52:41.644Z,5.45
2023-03-11T15:54:58.674Z,2.42
2023-03-11T15:57:15.907Z,1.70
2023-03-11T15:59:32.898Z,1.67
2023-03-11T16:01:49.853Z,1.20
2023-03-11T16:04:06.888Z,1.30
2023-03-11T16:06:23.967Z,1.98
2023-03-11T16:08:41.008Z,1.08
2023-03-11T16:10:59.087Z,1.50
2023-03-11T16:13:16.076Z,1.30
2023-03-11T16:15:33.400Z,1.25
2023-03-11T16:17:50.485Z,1.48
2023-03-11T16:20:07.536Z,1.25
2023-03-11T16:22:24.552Z,1.00
2023-03-11T16:24:42.877Z,1.55
2023-03-11T16:26:59.968Z,1.42
2023-03-11T16:29:19.605Z,1.30
2023-03-11T16:31:36.824Z,1.25
2023-03-11T16:33:53.755Z,1.42
2023-03-11T16:36:10.797Z,1.60
2023-03-11T16:38:28.127Z,1.30
2023-03-11T16:40:45.505Z,1.20
2023-03-11T16:43:02.838Z,1.30
2023-03-11T16:45:20.221Z,1.60
2023-03-11T16:47:37.186Z,1.30
2023-03-11T16:49:54.442Z,1.20
2023-03-11T16:52:11.650Z,1.20
2023-03-11T16:54:28.555Z,1.40
2023-03-11T16:56:45.517Z,1.20
2023-03-11T16:59:02.577Z,1.55
2023-03-11T17:01:19.967Z,1.13
2023-03-11T17:03:42.521Z,1.15
2023-03-11T17:06:00.010Z,8.50
2023-03-11T17:08:17.363Z,6.60
2023-03-11T17:10:34.437Z,4.30
2023-03-11T17:12:51.487Z,3.30
2023-03-11T17:15:09.086Z,2.05
2023-03-11T17:17:26.385Z,1.52
2023-03-11T17:19:43.639Z,1.80
2023-03-11T17:22:00.883Z,1.52
2023-03-11T17:24:17.882Z,1.63
2023-03-11T17:26:34.939Z,1.42
2023-03-11T17:28:51.828Z,1.30
2023-03-11T17:31:08.864Z,1.70
2023-03-11T17:33:25.992Z,2.35
2023-03-11T17:35:43.034Z,2.33
2023-03-11T17:38:00.261Z,1.58
2023-03-11T17:40:18.543Z,1.95
2023-03-11T17:42:36.921Z,1.90
2023-03-11T17:44:54.220Z,1.63
2023-03-11T17:47:11.293Z,2.00
2023-03-11T17:49:28.595Z,1.90
2023-03-11T17:51:45.721Z,2.10
2023-03-11T17:54:02.623Z,2.05
2023-03-11T17:56:19.920Z,1.90
2023-03-11T17:58:37.137Z,2.28
2023-03-11T18:00:54.056Z,2.42
2023-03-11T18:03:11.306Z,2.60
2023-03-11T18:05:28.237Z,2.78
2023-03-11T18:07:45.541Z,2.13
2023-03-11T18:10:02.501Z,2.10
2023-03-11T18:12:19.540Z,2.15
2023-03-11T18:14:36.887Z,2.17
2023-03-11T18:16:53.984Z,1.90
2023-03-11T18:19:11.394Z,2.10
2023-03-11T18:21:28.404Z,2.20
2023-03-11T18:23:46.443Z,2.03
2023-03-11T18:26:03.735Z,1.80
2023-03-11T18:28:20.784Z,1.80
2023-03-11T18:30:37.860Z,1.80
2023-03-11T18:32:55.005Z,2.13
2023-03-11T18:35:12.308Z,2.47
2023-03-11T18:37:29.624Z,2.05
2023-03-11T18:39:46.573Z,2.22
2023-03-11T18:42:03.626Z,3.15
2023-03-11T18:44:20.632Z,2.72
2023-03-11T18:46:38.697Z,3.00
2023-03-11T18:48:55.580Z,2.88
2023-03-11T18:51:12.877Z,3.05
2023-03-11T18:53:30.207Z,4.15
2023-03-11T18:55:47.476Z,5.20
2023-03-11T18:58:04.525Z,5.82
2023-03-11T19:00:21.648Z,5.97
2023-03-11T19:02:38.676Z,5.45
2023-03-11T19:04:55.653Z,5.75
2023-03-11T19:07:12.689Z,5.90
2023-03-11T19:09:29.704Z,5.57
2023-03-11T19:11:46.749Z,5.18
2023-03-11T19:14:04.017Z,4.60
2023-03-11T19:16:21.085Z,3.72
2023-03-11T19:18:38.024Z,3.13
2023-03-11T19:20:54.940Z,3.58
2023-03-11T19:23:11.908Z,3.60
2023-03-11T19:25:28.936Z,4.20
2023-03-11T19:27:46.006Z,4.30
2023-03-11T19:30:03.925Z,4.10
2023-03-11T19:32:20.918Z,4.68
2023-03-11T19:34:38.953Z,4.60
2023-03-11T19:36:56.025Z,3.83
2023-03-11T19:39:13.017Z,4.20
2023-03-11T19:41:29.955Z,5.38
2023-03-11T19:43:46.899Z,6.10
2023-03-11T19:46:03.881Z,4.72
2023-03-11T19:48:20.804Z,5.22
2023-03-11T19:50:37.778Z,4.53
2023-03-11T19:52:54.663Z,3.50
2023-03-11T19:55:11.644Z,3.30
2023-03-11T19:57:28.590Z,3.50
2023-03-11T19:59:45.874Z,4.03
2023-03-11T20:02:03.277Z,3.38
2023-03-11T20:04:20.294Z,3.33
2023-03-11T20:06:37.388Z,4.75
2023-03-11T20:08:54.465Z,4.90
2023-03-11T20:11:11.702Z,4.30
2023-03-11T20:13:28.617Z,3.50
2023-03-11T20:15:45.742Z,2.45
2023-03-11T20:18:04.028Z,4.35
2023-03-11T20:20:20.975Z,8.35
2023-03-11T20:22:38.080Z,9.95
2023-03-11T20:24:55.349Z,10.60
2023-03-11T20:27:12.465Z,8.60
2023-03-11T20:29:29.585Z,6.50
2023-03-11T20:31:46.666Z,6.22
2023-03-11T20:34:03.704Z,6.60
2023-03-11T20:36:21.301Z,6.63
2023-03-11T20:38:38.219Z,6.10
2023-03-11T20:40:56.507Z,6.45
2023-03-11T20:43:13.580Z,7.95
2023-03-11T20:45:30.920Z,7.25
2023-03-11T20:47:48.025Z,7.10
2023-03-11T20:50:05.102Z,6.93
2023-03-11T20:52:23.273Z,6.90
2023-03-11T20:54:40.352Z,6.35
2023-03-11T20:56:57.690Z,6.22
2023-03-11T20:59:14.720Z,5.30
2023-03-11T21:01:32.051Z,5.57
2023-03-11T21:03:49.541Z,6.68
2023-03-11T21:06:06.596Z,5.05
2023-03-11T21:08:23.702Z,4.00
2023-03-11T21:10:40.942Z,3.70
2023-03-11T21:12:58.081Z,2.95
2023-03-11T21:15:15.141Z,2.45
2023-03-11T21:17:32.180Z,2.58
2023-03-11T21:19:49.649Z,2.83
2023-03-11T21:22:07.001Z,2.65
2023-03-11T21:24:24.079Z,3.33
2023-03-11T21:26:41.358Z,4.15
2023-03-11T21:28:58.336Z,3.90
2023-03-11T21:31:15.711Z,3.78
2023-03-11T21:33:33.098Z,3.90
2023-03-11T21:35:50.171Z,3.88
2023-03-11T21:38:07.237Z,3.08
2023-03-11T21:40:24.655Z,2.58
2023-03-11T21:42:41.626Z,2.20
2023-03-11T21:44:58.643Z,2.20
2023-03-11T21:47:15.664Z,2.00
2023-03-11T21:49:32.820Z,2.25
2023-03-11T21:51:49.817Z,2.28
2023-03-11T21:54:06.778Z,2.53
2023-03-11T21:56:23.786Z,2.22
2023-03-11T21:58:40.981Z,2.60
2023-03-11T22:00:59.824Z,2.17
2023-03-11T22:03:16.918Z,2.20
2023-03-11T22:05:33.988Z,3.08
2023-03-11T22:07:50.945Z,2.60
2023-03-11T22:10:08.003Z,3.05
2023-03-11T22:12:25.002Z,3.00
2023-03-11T22:14:42.432Z,2.80
2023-03-11T22:16:59.907Z,3.10
2023-03-11T22:19:16.918Z,2.95
2023-03-11T22:21:34.192Z,3.00
2023-03-11T22:23:51.223Z,3.10
2023-03-11T22:26:09.586Z,2.95
2023-03-11T22:28:26.532Z,3.78
2023-03-11T22:30:43.818Z,3.25
2023-03-11T22:33:00.706Z,2.95
2023-03-11T22:35:17.721Z,2.72
2023-03-11T22:37:34.642Z,2.70
2023-03-11T22:39:51.670Z,3.13
2023-03-11T22:42:08.721Z,3.30
2023-03-11T22:44:26.066Z,3.10
2023-03-11T22:46:43.006Z,3.38
2023-03-11T22:49:00.050Z,3.60
2023-03-11T22:51:16.947Z,3.45
2023-03-11T22:53:33.978Z,3.53
2023-03-11T22:55:51.039Z,3.22
2023-03-11T22:58:08.394Z,3.83
2023-03-11T23:00:25.642Z,3.25
2023-03-11T23:02:42.711Z,2.80
2023-03-11T23:04:59.991Z,2.92
2023-03-11T23:07:17.263Z,3.13
2023-03-11T23:09:34.352Z,2.92
2023-03-11T23:11:51.326Z,2.53
2023-03-11T23:14:08.558Z,3.30
2023-03-11T23:16:25.622Z,3.25
2023-03-11T23:18:42.487Z,3.80
2023-03-11T23:20:59.751Z,4.30
2023-03-11T23:23:16.698Z,4.28
2023-03-11T23:25:34.624Z,3.90
2023-03-11T23:27:52.853Z,4.30
2023-03-11T23:30:09.898Z,4.15
2023-03-11T23:32:27.197Z,4.20
2023-03-11T23:34:44.190Z,3.25
2023-03-11T23:37:01.865Z,3.80
2023-03-11T23:39:20.126Z,3.60
2023-03-11T23:41:37.112Z,3.22
2023-03-11T23:43:53.951Z,3.60
2023-03-11T23:46:11.238Z,3.88
2023-03-11T23:48:28.265Z,3.53
2023-03-11T23:50:45.112Z,3.88
2023-03-11T23:53:02.027Z,3.75
2023-03-11T23:55:19.075Z,4.07
2023-03-11T23:57:36.044Z,4.00
2023-03-11T23:59:53.054Z,3.70
